sensor_id;sensor_type;location;lat;lon;timestamp;P1;durP1;ratioP1;P2;durP2;ratioP2
51943;SDS011;37969;53.132;6.370;2023-04-01T00:00:48;15.07;;;11.98;;
51943;SDS011;37969;53.132;6.370;2023-04-01T00:03:15;13.98;;;11.40;;
51943;SDS011;37969;53.132;6.370;2023-04-01T00:05:41;14.15;;;11.38;;
51943;SDS011;37969;53.132;6.370;2023-04-01T00:08:07;14.30;;;11.60;;
51943;SDS011;37969;53.132;6.370;2023-04-01T00:10:33;13.63;;;11.32;;
51943;SDS011;37969;53.132;6.370;2023-04-01T00:13:00;14.05;;;10.88;;
51943;SDS011;37969;53.132;6.370;2023-04-01T00:15:26;15.32;;;11.90;;
51943;SDS011;37969;53.132;6.370;2023-04-01T00:17:52;14.75;;;11.38;;
51943;SDS011;37969;53.132;6.370;2023-04-01T00:20:19;14.20;;;11.20;;
51943;SDS011;37969;53.132;6.370;2023-04-01T00:22:45;14.77;;;12.43;;
51943;SDS011;37969;53.132;6.370;2023-04-01T00:25:11;16.45;;;12.50;;
51943;SDS011;37969;53.132;6.370;2023-04-01T00:27:38;14.18;;;11.65;;
51943;SDS011;37969;53.132;6.370;2023-04-01T00:30:04;17.08;;;13.07;;
51943;SDS011;37969;53.132;6.370;2023-04-01T00:32:31;21.30;;;14.38;;
51943;SDS011;37969;53.132;6.370;2023-04-01T00:34:57;16.20;;;12.57;;
51943;SDS011;37969;53.132;6.370;2023-04-01T00:37:24;14.20;;;12.45;;
51943;SDS011;37969;53.132;6.370;2023-04-01T00:39:51;17.35;;;13.38;;
51943;SDS011;37969;53.132;6.370;2023-04-01T00:42:17;18.95;;;14.63;;
51943;SDS011;37969;53.132;6.370;2023-04-01T00:44:45;18.55;;;13.82;;
51943;SDS011;37969;53.132;6.370;2023-04-01T00:47:11;18.23;;;13.85;;
51943;SDS011;37969;53.132;6.370;2023-04-01T00:49:38;20.08;;;13.85;;
51943;SDS011;37969;53.132;6.370;2023-04-01T00:52:05;16.40;;;13.20;;
51943;SDS011;37969;53.132;6.370;2023-04-01T00:54:32;16.75;;;12.85;;
51943;SDS011;37969;53.132;6.370;2023-04-01T00:57:00;16.55;;;13.57;;
51943;SDS011;37969;53.132;6.370;2023-04-01T00:59:29;19.20;;;14.15;;
51943;SDS011;37969;53.132;6.370;2023-04-01T01:01:56;15.65;;;12.52;;
51943;SDS011;37969;53.132;6.370;2023-04-01T01:04:23;17.52;;;14.45;;
51943;SDS011;37969;53.132;6.370;2023-04-01T01:09:24;19.70;;;13.27;;
51943;SDS011;37969;53.132;6.370;2023-04-01T01:11:54;16.85;;;13.70;;
51943;SDS011;37969;53.132;6.370;2023-04-01T01:14:36;17.00;;;13.23;;
51943;SDS011;37969;53.132;6.370;2023-04-01T01:17:09;17.73;;;13.32;;
51943;SDS011;37969;53.132;6.370;2023-04-01T01:19:51;17.65;;;12.27;;
51943;SDS011;37969;53.132;6.370;2023-04-01T01:25:01;15.55;;;12.70;;
51943;SDS011;37969;53.132;6.370;2023-04-01T01:27:37;16.17;;;12.40;;
51943;SDS011;37969;53.132;6.370;2023-04-01T01:30:09;15.50;;;12.15;;
51943;SDS011;37969;53.132;6.370;2023-04-01T01:32:59;18.83;;;13.38;;
51943;SDS011;37969;53.132;6.370;2023-04-01T01:35:31;15.13;;;12.82;;
51943;SDS011;37969;53.132;6.370;2023-04-01T01:38:00;17.48;;;12.82;;
51943;SDS011;37969;53.132;6.370;2023-04-01T01:40:27;14.85;;;12.13;;
51943;SDS011;37969;53.132;6.370;2023-04-01T01:42:55;18.92;;;13.73;;
51943;SDS011;37969;53.132;6.370;2023-04-01T01:45:23;16.00;;;12.63;;
51943;SDS011;37969;53.132;6.370;2023-04-01T01:47:51;14.95;;;12.73;;
51943;SDS011;37969;53.132;6.370;2023-04-01T01:50:17;16.73;;;13.30;;
51943;SDS011;37969;53.132;6.370;2023-04-01T01:52:45;17.30;;;13.55;;
51943;SDS011;37969;53.132;6.370;2023-04-01T01:57:50;19.73;;;13.27;;
51943;SDS011;37969;53.132;6.370;2023-04-01T02:00:16;16.63;;;13.18;;
51943;SDS011;37969;53.132;6.370;2023-04-01T02:02:44;17.35;;;13.93;;
51943;SDS011;37969;53.132;6.370;2023-04-01T02:05:11;15.82;;;13.55;;
51943;SDS011;37969;53.132;6.370;2023-04-01T02:07:41;15.93;;;12.73;;
51943;SDS011;37969;53.132;6.370;2023-04-01T02:10:09;17.45;;;14.05;;
51943;SDS011;37969;53.132;6.370;2023-04-01T02:12:35;17.83;;;13.60;;
51943;SDS011;37969;53.132;6.370;2023-04-01T02:17:31;18.33;;;13.68;;
51943;SDS011;37969;53.132;6.370;2023-04-01T02:20:00;17.98;;;12.68;;
51943;SDS011;37969;53.132;6.370;2023-04-01T02:22:31;17.88;;;13.80;;
51943;SDS011;37969;53.132;6.370;2023-04-01T02:24:58;22.45;;;14.15;;
51943;SDS011;37969;53.132;6.370;2023-04-01T02:27:25;19.52;;;14.65;;
51943;SDS011;37969;53.132;6.370;2023-04-01T02:29:51;21.15;;;14.23;;
51943;SDS011;37969;53.132;6.370;2023-04-01T02:32:18;22.17;;;15.68;;
51943;SDS011;37969;53.132;6.370;2023-04-01T02:34:45;21.27;;;15.13;;
51943;SDS011;37969;53.132;6.370;2023-04-01T02:37:12;17.25;;;13.85;;
51943;SDS011;37969;53.132;6.370;2023-04-01T02:39:38;19.55;;;14.73;;
51943;SDS011;37969;53.132;6.370;2023-04-01T02:42:05;17.77;;;13.63;;
51943;SDS011;37969;53.132;6.370;2023-04-01T02:44:31;18.58;;;13.75;;
51943;SDS011;37969;53.132;6.370;2023-04-01T02:46:57;19.60;;;14.50;;
51943;SDS011;37969;53.132;6.370;2023-04-01T02:49:23;20.42;;;14.80;;
51943;SDS011;37969;53.132;6.370;2023-04-01T02:51:50;20.25;;;15.07;;
51943;SDS011;37969;53.132;6.370;2023-04-01T02:54:17;23.42;;;16.17;;
51943;SDS011;37969;53.132;6.370;2023-04-01T02:56:43;21.13;;;15.82;;
51943;SDS011;37969;53.132;6.370;2023-04-01T02:59:10;20.20;;;15.23;;
51943;SDS011;37969;53.132;6.370;2023-04-01T03:01:36;24.58;;;16.45;;
51943;SDS011;37969;53.132;6.370;2023-04-01T03:04:03;24.40;;;15.07;;
51943;SDS011;37969;53.132;6.370;2023-04-01T03:06:30;25.52;;;16.65;;
51943;SDS011;37969;53.132;6.370;2023-04-01T03:08:57;21.08;;;15.48;;
51943;SDS011;37969;53.132;6.370;2023-04-01T03:11:23;25.73;;;16.77;;
51943;SDS011;37969;53.132;6.370;2023-04-01T03:13:50;23.48;;;16.38;;
51943;SDS011;37969;53.132;6.370;2023-04-01T03:16:16;22.63;;;16.70;;
51943;SDS011;37969;53.132;6.370;2023-04-01T03:18:43;24.15;;;16.80;;
51943;SDS011;37969;53.132;6.370;2023-04-01T03:21:20;24.23;;;16.65;;
51943;SDS011;37969;53.132;6.370;2023-04-01T03:23:46;24.35;;;17.08;;
51943;SDS011;37969;53.132;6.370;2023-04-01T03:26:13;24.88;;;15.88;;
51943;SDS011;37969;53.132;6.370;2023-04-01T03:28:39;24.08;;;16.75;;
51943;SDS011;37969;53.132;6.370;2023-04-01T03:31:05;22.05;;;16.08;;
51943;SDS011;37969;53.132;6.370;2023-04-01T03:33:31;22.38;;;16.98;;
51943;SDS011;37969;53.132;6.370;2023-04-01T03:35:58;22.27;;;17.02;;
51943;SDS011;37969;53.132;6.370;2023-04-01T03:38:24;22.70;;;16.45;;
51943;SDS011;37969;53.132;6.370;2023-04-01T03:40:50;23.67;;;16.50;;
51943;SDS011;37969;53.132;6.370;2023-04-01T03:43:16;25.02;;;17.20;;
51943;SDS011;37969;53.132;6.370;2023-04-01T03:45:43;23.83;;;17.35;;
51943;SDS011;37969;53.132;6.370;2023-04-01T03:48:10;22.25;;;17.73;;
51943;SDS011;37969;53.132;6.370;2023-04-01T03:50:36;28.98;;;19.40;;
51943;SDS011;37969;53.132;6.370;2023-04-01T03:53:02;25.27;;;18.52;;
51943;SDS011;37969;53.132;6.370;2023-04-01T03:55:28;27.25;;;19.38;;
51943;SDS011;37969;53.132;6.370;2023-04-01T03:57:54;29.55;;;19.40;;
51943;SDS011;37969;53.132;6.370;2023-04-01T04:00:20;28.63;;;20.00;;
51943;SDS011;37969;53.132;6.370;2023-04-01T04:02:46;27.02;;;19.83;;
51943;SDS011;37969;53.132;6.370;2023-04-01T04:05:13;26.27;;;18.90;;
51943;SDS011;37969;53.132;6.370;2023-04-01T04:07:39;29.55;;;19.63;;
51943;SDS011;37969;53.132;6.370;2023-04-01T04:10:06;29.95;;;20.08;;
51943;SDS011;37969;53.132;6.370;2023-04-01T04:12:32;33.42;;;21.05;;
51943;SDS011;37969;53.132;6.370;2023-04-01T04:14:58;30.23;;;20.67;;
51943;SDS011;37969;53.132;6.370;2023-04-01T04:17:24;31.08;;;20.98;;
51943;SDS011;37969;53.132;6.370;2023-04-01T04:19:51;32.20;;;22.17;;
51943;SDS011;37969;53.132;6.370;2023-04-01T04:22:17;32.65;;;21.88;;
51943;SDS011;37969;53.132;6.370;2023-04-01T04:24:43;31.90;;;22.73;;
51943;SDS011;37969;53.132;6.370;2023-04-01T04:27:09;30.45;;;20.83;;
51943;SDS011;37969;53.132;6.370;2023-04-01T04:29:35;33.15;;;21.55;;
51943;SDS011;37969;53.132;6.370;2023-04-01T04:32:01;34.88;;;21.60;;
51943;SDS011;37969;53.132;6.370;2023-04-01T04:34:29;34.33;;;22.30;;
51943;SDS011;37969;53.132;6.370;2023-04-01T04:36:55;34.38;;;22.42;;
51943;SDS011;37969;53.132;6.370;2023-04-01T04:39:21;35.40;;;22.10;;
51943;SDS011;37969;53.132;6.370;2023-04-01T04:41:48;34.63;;;22.08;;
51943;SDS011;37969;53.132;6.370;2023-04-01T04:44:14;31.67;;;21.80;;
51943;SDS011;37969;53.132;6.370;2023-04-01T04:46:40;32.38;;;22.30;;
51943;SDS011;37969;53.132;6.370;2023-04-01T04:49:06;33.03;;;22.58;;
51943;SDS011;37969;53.132;6.370;2023-04-01T04:51:33;37.95;;;22.95;;
51943;SDS011;37969;53.132;6.370;2023-04-01T04:54:01;36.20;;;22.77;;
51943;SDS011;37969;53.132;6.370;2023-04-01T04:56:27;40.05;;;23.27;;
51943;SDS011;37969;53.132;6.370;2023-04-01T04:58:54;34.70;;;22.80;;
51943;SDS011;37969;53.132;6.370;2023-04-01T05:01:20;37.00;;;22.65;;
51943;SDS011;37969;53.132;6.370;2023-04-01T05:03:46;43.33;;;23.88;;
51943;SDS011;37969;53.132;6.370;2023-04-01T05:06:13;38.05;;;23.30;;
51943;SDS011;37969;53.132;6.370;2023-04-01T05:08:40;41.00;;;23.65;;
51943;SDS011;37969;53.132;6.370;2023-04-01T05:11:09;41.75;;;24.35;;
51943;SDS011;37969;53.132;6.370;2023-04-01T05:13:36;45.95;;;25.75;;
51943;SDS011;37969;53.132;6.370;2023-04-01T05:16:02;38.13;;;23.48;;
51943;SDS011;37969;53.132;6.370;2023-04-01T05:18:28;39.30;;;24.42;;
51943;SDS011;37969;53.132;6.370;2023-04-01T05:20:54;41.50;;;23.98;;
51943;SDS011;37969;53.132;6.370;2023-04-01T05:23:21;36.72;;;24.45;;
51943;SDS011;37969;53.132;6.370;2023-04-01T05:25:48;37.58;;;23.55;;
51943;SDS011;37969;53.132;6.370;2023-04-01T05:28:15;42.40;;;24.40;;
51943;SDS011;37969;53.132;6.370;2023-04-01T05:30:42;43.00;;;24.40;;
51943;SDS011;37969;53.132;6.370;2023-04-01T05:33:08;36.47;;;23.90;;
51943;SDS011;37969;53.132;6.370;2023-04-01T05:35:34;39.35;;;24.77;;
51943;SDS011;37969;53.132;6.370;2023-04-01T05:38:01;38.22;;;24.08;;
51943;SDS011;37969;53.132;6.370;2023-04-01T05:40:27;39.78;;;23.77;;
51943;SDS011;37969;53.132;6.370;2023-04-01T05:42:53;35.70;;;21.27;;
51943;SDS011;37969;53.132;6.370;2023-04-01T05:45:20;39.20;;;22.13;;
51943;SDS011;37969;53.132;6.370;2023-04-01T05:47:46;30.38;;;20.58;;
51943;SDS011;37969;53.132;6.370;2023-04-01T05:50:13;37.17;;;21.35;;
51943;SDS011;37969;53.132;6.370;2023-04-01T05:52:40;36.92;;;21.42;;
51943;SDS011;37969;53.132;6.370;2023-04-01T05:55:06;34.55;;;19.55;;
51943;SDS011;37969;53.132;6.370;2023-04-01T05:57:33;25.80;;;18.08;;
51943;SDS011;37969;53.132;6.370;2023-04-01T05:59:59;29.60;;;18.73;;
51943;SDS011;37969;53.132;6.370;2023-04-01T06:02:25;28.60;;;18.38;;
51943;SDS011;37969;53.132;6.370;2023-04-01T06:05:02;25.33;;;17.38;;
51943;SDS011;37969;53.132;6.370;2023-04-01T06:07:29;28.67;;;17.63;;
51943;SDS011;37969;53.132;6.370;2023-04-01T06:09:55;24.17;;;17.13;;
51943;SDS011;37969;53.132;6.370;2023-04-01T06:14:52;24.58;;;16.65;;
51943;SDS011;37969;53.132;6.370;2023-04-01T06:17:26;23.10;;;16.17;;
51943;SDS011;37969;53.132;6.370;2023-04-01T06:19:57;26.13;;;16.48;;
51943;SDS011;37969;53.132;6.370;2023-04-01T06:22:30;22.10;;;15.30;;
51943;SDS011;37969;53.132;6.370;2023-04-01T06:25:02;27.50;;;16.85;;
51943;SDS011;37969;53.132;6.370;2023-04-01T06:32:57;23.33;;;15.07;;
51943;SDS011;37969;53.132;6.370;2023-04-01T06:35:29;22.42;;;14.65;;
51943;SDS011;37969;53.132;6.370;2023-04-01T06:38:06;30.83;;;15.80;;
51943;SDS011;37969;53.132;6.370;2023-04-01T06:40:46;18.40;;;14.13;;
51943;SDS011;37969;53.132;6.370;2023-04-01T06:45:44;21.70;;;15.65;;
51943;SDS011;37969;53.132;6.370;2023-04-01T06:48:23;23.80;;;15.85;;
51943;SDS011;37969;53.132;6.370;2023-04-01T06:51:02;23.67;;;16.45;;
51943;SDS011;37969;53.132;6.370;2023-04-01T06:53:39;21.80;;;16.45;;
51943;SDS011;37969;53.132;6.370;2023-04-01T06:56:09;23.85;;;17.80;;
51943;SDS011;37969;53.132;6.370;2023-04-01T06:58:39;23.70;;;18.13;;
51943;SDS011;37969;53.132;6.370;2023-04-01T07:01:08;23.48;;;17.77;;
51943;SDS011;37969;53.132;6.370;2023-04-01T07:03:39;24.63;;;18.58;;
51943;SDS011;37969;53.132;6.370;2023-04-01T07:06:08;23.55;;;18.83;;
51943;SDS011;37969;53.132;6.370;2023-04-01T07:08:37;25.33;;;20.98;;
51943;SDS011;37969;53.132;6.370;2023-04-01T07:11:06;28.83;;;22.08;;
51943;SDS011;37969;53.132;6.370;2023-04-01T07:13:34;32.25;;;23.52;;
51943;SDS011;37969;53.132;6.370;2023-04-01T07:18:30;29.40;;;22.35;;
51943;SDS011;37969;53.132;6.370;2023-04-01T07:20:58;26.67;;;22.50;;
51943;SDS011;37969;53.132;6.370;2023-04-01T07:23:26;27.25;;;22.00;;
51943;SDS011;37969;53.132;6.370;2023-04-01T07:25:58;27.33;;;22.70;;
51943;SDS011;37969;53.132;6.370;2023-04-01T07:28:26;27.45;;;22.77;;
51943;SDS011;37969;53.132;6.370;2023-04-01T07:33:28;26.23;;;22.73;;
51943;SDS011;37969;53.132;6.370;2023-04-01T07:35:59;27.83;;;24.13;;
51943;SDS011;37969;53.132;6.370;2023-04-01T07:38:46;30.75;;;24.27;;
51943;SDS011;37969;53.132;6.370;2023-04-01T07:41:23;28.63;;;23.13;;
51943;SDS011;37969;53.132;6.370;2023-04-01T07:46:34;29.67;;;23.45;;
51943;SDS011;37969;53.132;6.370;2023-04-01T07:49:08;27.27;;;23.73;;
51943;SDS011;37969;53.132;6.370;2023-04-01T07:51:40;28.38;;;23.35;;
51943;SDS011;37969;53.132;6.370;2023-04-01T07:54:09;32.50;;;23.73;;
51943;SDS011;37969;53.132;6.370;2023-04-01T07:56:42;27.17;;;23.33;;
51943;SDS011;37969;53.132;6.370;2023-04-01T08:06:38;26.48;;;21.67;;
51943;SDS011;37969;53.132;6.370;2023-04-01T08:09:15;27.17;;;22.05;;
51943;SDS011;37969;53.132;6.370;2023-04-01T08:11:59;29.50;;;23.38;;
51943;SDS011;37969;53.132;6.370;2023-04-01T08:14:34;27.23;;;23.30;;
51943;SDS011;37969;53.132;6.370;2023-04-01T08:17:04;28.42;;;22.80;;
51943;SDS011;37969;53.132;6.370;2023-04-01T08:22:04;26.52;;;22.45;;
51943;SDS011;37969;53.132;6.370;2023-04-01T08:26:59;27.27;;;21.98;;
51943;SDS011;37969;53.132;6.370;2023-04-01T08:29:38;23.75;;;19.40;;
51943;SDS011;37969;53.132;6.370;2023-04-01T08:32:06;23.25;;;20.05;;
51943;SDS011;37969;53.132;6.370;2023-04-01T08:34:37;22.80;;;20.27;;
51943;SDS011;37969;53.132;6.370;2023-04-01T08:37:08;23.67;;;20.30;;
51943;SDS011;37969;53.132;6.370;2023-04-01T08:39:41;23.10;;;20.58;;
51943;SDS011;37969;53.132;6.370;2023-04-01T08:42:12;23.67;;;21.05;;
51943;SDS011;37969;53.132;6.370;2023-04-01T08:47:13;25.52;;;20.90;;
51943;SDS011;37969;53.132;6.370;2023-04-01T08:49:53;21.92;;;19.48;;
51943;SDS011;37969;53.132;6.370;2023-04-01T08:57:22;24.50;;;20.50;;
51943;SDS011;37969;53.132;6.370;2023-04-01T09:02:24;20.50;;;18.30;;
51943;SDS011;37969;53.132;6.370;2023-04-01T09:04:59;20.55;;;18.13;;
51943;SDS011;37969;53.132;6.370;2023-04-01T09:07:59;21.77;;;18.55;;
51943;SDS011;37969;53.132;6.370;2023-04-01T09:20:47;17.00;;;15.27;;
51943;SDS011;37969;53.132;6.370;2023-04-01T09:26:08;16.48;;;12.55;;
51943;SDS011;37969;53.132;6.370;2023-04-01T09:28:52;13.52;;;11.32;;
51943;SDS011;37969;53.132;6.370;2023-04-01T09:34:09;11.88;;;10.68;;
51943;SDS011;37969;53.132;6.370;2023-04-01T09:36:44;10.63;;;9.52;;
51943;SDS011;37969;53.132;6.370;2023-04-01T09:39:16;12.02;;;10.73;;
51943;SDS011;37969;53.132;6.370;2023-04-01T09:44:21;13.75;;;10.00;;
51943;SDS011;37969;53.132;6.370;2023-04-01T09:54:42;9.75;;;7.45;;
51943;SDS011;37969;53.132;6.370;2023-04-01T09:57:29;8.20;;;6.80;;
51943;SDS011;37969;53.132;6.370;2023-04-01T10:05:12;8.27;;;6.55;;
51943;SDS011;37969;53.132;6.370;2023-04-01T10:07:52;6.07;;;5.47;;
51943;SDS011;37969;53.132;6.370;2023-04-01T10:10:26;7.22;;;5.43;;
51943;SDS011;37969;53.132;6.370;2023-04-01T10:23:27;6.85;;;5.43;;
51943;SDS011;37969;53.132;6.370;2023-04-01T10:38:55;6.90;;;5.40;;
51943;SDS011;37969;53.132;6.370;2023-04-01T10:43:59;5.43;;;4.95;;
51943;SDS011;37969;53.132;6.370;2023-04-01T10:52:07;7.65;;;4.93;;
51943;SDS011;37969;53.132;6.370;2023-04-01T10:59:48;9.20;;;4.13;;
51943;SDS011;37969;53.132;6.370;2023-04-01T11:02:34;4.00;;;3.40;;
51943;SDS011;37969;53.132;6.370;2023-04-01T11:05:21;4.30;;;3.60;;
51943;SDS011;37969;53.132;6.370;2023-04-01T11:10:54;3.40;;;3.20;;
51943;SDS011;37969;53.132;6.370;2023-04-01T11:13:48;3.23;;;2.77;;
51943;SDS011;37969;53.132;6.370;2023-04-01T11:18:59;3.25;;;2.92;;
51943;SDS011;37969;53.132;6.370;2023-04-01T11:31:47;3.25;;;2.80;;
51943;SDS011;37969;53.132;6.370;2023-04-01T11:34:26;4.00;;;3.13;;
51943;SDS011;37969;53.132;6.370;2023-04-01T11:39:36;4.25;;;3.80;;
51943;SDS011;37969;53.132;6.370;2023-04-01T11:42:09;4.80;;;4.20;;
51943;SDS011;37969;53.132;6.370;2023-04-01T11:44:39;4.10;;;3.70;;
51943;SDS011;37969;53.132;6.370;2023-04-01T11:47:13;5.20;;;4.22;;
51943;SDS011;37969;53.132;6.370;2023-04-01T11:49:51;4.50;;;4.07;;
51943;SDS011;37969;53.132;6.370;2023-04-01T11:52:27;4.75;;;4.25;;
51943;SDS011;37969;53.132;6.370;2023-04-01T12:08:21;2.92;;;2.72;;
51943;SDS011;37969;53.132;6.370;2023-04-01T12:10:57;3.50;;;3.30;;
51943;SDS011;37969;53.132;6.370;2023-04-01T12:13:30;4.30;;;2.90;;
51943;SDS011;37969;53.132;6.370;2023-04-01T12:16:04;2.92;;;2.38;;
51943;SDS011;37969;53.132;6.370;2023-04-01T12:18:35;3.38;;;2.67;;
51943;SDS011;37969;53.132;6.370;2023-04-01T12:26:21;3.20;;;2.88;;
51943;SDS011;37969;53.132;6.370;2023-04-01T12:29:02;5.28;;;2.58;;
51943;SDS011;37969;53.132;6.370;2023-04-01T12:31:34;2.53;;;2.33;;
51943;SDS011;37969;53.132;6.370;2023-04-01T12:34:22;2.90;;;2.70;;
51943;SDS011;37969;53.132;6.370;2023-04-01T12:36:58;3.10;;;2.80;;
51943;SDS011;37969;53.132;6.370;2023-04-01T12:41:59;3.17;;;2.83;;
51943;SDS011;37969;53.132;6.370;2023-04-01T12:47:11;2.90;;;2.70;;
51943;SDS011;37969;53.132;6.370;2023-04-01T12:54:44;2.50;;;2.30;;
51943;SDS011;37969;53.132;6.370;2023-04-01T12:57:22;2.83;;;2.50;;
51943;SDS011;37969;53.132;6.370;2023-04-01T13:00:05;2.88;;;2.40;;
51943;SDS011;37969;53.132;6.370;2023-04-01T13:05:15;2.28;;;2.08;;
51943;SDS011;37969;53.132;6.370;2023-04-01T13:08:04;3.60;;;2.72;;
51943;SDS011;37969;53.132;6.370;2023-04-01T13:10:53;3.58;;;2.17;;
51943;SDS011;37969;53.132;6.370;2023-04-01T13:18:33;2.70;;;2.50;;
51943;SDS011;37969;53.132;6.370;2023-04-01T13:21:05;2.63;;;2.50;;
51943;SDS011;37969;53.132;6.370;2023-04-01T13:26:22;2.50;;;2.30;;
51943;SDS011;37969;53.132;6.370;2023-04-01T13:29:04;2.95;;;2.13;;
51943;SDS011;37969;53.132;6.370;2023-04-01T13:31:37;3.13;;;2.10;;
51943;SDS011;37969;53.132;6.370;2023-04-01T13:34:08;2.58;;;2.47;;
51943;SDS011;37969;53.132;6.370;2023-04-01T13:36:55;3.08;;;2.60;;
51943;SDS011;37969;53.132;6.370;2023-04-01T13:39:25;6.40;;;2.15;;
51943;SDS011;37969;53.132;6.370;2023-04-01T13:44:28;3.92;;;2.22;;
51943;SDS011;37969;53.132;6.370;2023-04-01T13:47:10;2.72;;;2.35;;
51943;SDS011;37969;53.132;6.370;2023-04-01T13:52:08;4.65;;;2.40;;
51943;SDS011;37969;53.132;6.370;2023-04-01T13:54:45;2.45;;;2.30;;
51943;SDS011;37969;53.132;6.370;2023-04-01T13:57:20;3.30;;;2.33;;
51943;SDS011;37969;53.132;6.370;2023-04-01T14:02:28;2.83;;;2.63;;
51943;SDS011;37969;53.132;6.370;2023-04-01T14:10:27;2.60;;;2.40;;
51943;SDS011;37969;53.132;6.370;2023-04-01T14:12:58;2.70;;;2.50;;
51943;SDS011;37969;53.132;6.370;2023-04-01T14:15:48;2.58;;;2.38;;
51943;SDS011;37969;53.132;6.370;2023-04-01T14:18:21;3.17;;;2.20;;
51943;SDS011;37969;53.132;6.370;2023-04-01T14:38:26;1.83;;;1.70;;
51943;SDS011;37969;53.132;6.370;2023-04-01T14:41:13;2.50;;;1.95;;
51943;SDS011;37969;53.132;6.370;2023-04-01T14:46:34;2.38;;;1.60;;
51943;SDS011;37969;53.132;6.370;2023-04-01T14:49:05;2.03;;;1.73;;
51943;SDS011;37969;53.132;6.370;2023-04-01T14:51:40;3.17;;;1.80;;
51943;SDS011;37969;53.132;6.370;2023-04-01T14:56:48;1.80;;;1.70;;
51943;SDS011;37969;53.132;6.370;2023-04-01T15:01:51;2.05;;;1.85;;
51943;SDS011;37969;53.132;6.370;2023-04-01T15:06:56;2.03;;;1.90;;
51943;SDS011;37969;53.132;6.370;2023-04-01T15:09:37;2.13;;;2.00;;
51943;SDS011;37969;53.132;6.370;2023-04-01T15:14:39;1.85;;;1.75;;
51943;SDS011;37969;53.132;6.370;2023-04-01T15:17:29;3.08;;;2.00;;
51943;SDS011;37969;53.132;6.370;2023-04-01T15:20:03;4.45;;;1.85;;
51943;SDS011;37969;53.132;6.370;2023-04-01T15:27:32;2.08;;;1.98;;
51943;SDS011;37969;53.132;6.370;2023-04-01T15:30:15;4.53;;;2.50;;
51943;SDS011;37969;53.132;6.370;2023-04-01T15:32:53;4.05;;;2.00;;
51943;SDS011;37969;53.132;6.370;2023-04-01T15:35:28;4.30;;;2.03;;
51943;SDS011;37969;53.132;6.370;2023-04-01T15:37:57;4.18;;;2.40;;
51943;SDS011;37969;53.132;6.370;2023-04-01T15:40:28;3.47;;;2.50;;
51943;SDS011;37969;53.132;6.370;2023-04-01T15:43:15;5.07;;;2.72;;
51943;SDS011;37969;53.132;6.370;2023-04-01T15:55:59;5.22;;;3.15;;
51943;SDS011;37969;53.132;6.370;2023-04-01T15:58:38;4.30;;;3.17;;
51943;SDS011;37969;53.132;6.370;2023-04-01T16:04:06;6.60;;;3.70;;
51943;SDS011;37969;53.132;6.370;2023-04-01T16:06:43;7.00;;;3.83;;
51943;SDS011;37969;53.132;6.370;2023-04-01T16:09:17;6.38;;;3.90;;
51943;SDS011;37969;53.132;6.370;2023-04-01T16:11:49;5.47;;;3.88;;
51943;SDS011;37969;53.132;6.370;2023-04-01T16:16:58;7.95;;;4.30;;
51943;SDS011;37969;53.132;6.370;2023-04-01T16:24:24;5.47;;;4.28;;
51943;SDS011;37969;53.132;6.370;2023-04-01T16:26:57;4.13;;;3.60;;
51943;SDS011;37969;53.132;6.370;2023-04-01T16:29:35;5.18;;;3.80;;
51943;SDS011;37969;53.132;6.370;2023-04-01T16:32:14;3.88;;;3.47;;
51943;SDS011;37969;53.132;6.370;2023-04-01T16:34:47;6.07;;;4.53;;
51943;SDS011;37969;53.132;6.370;2023-04-01T16:37:20;8.18;;;5.10;;
51943;SDS011;37969;53.132;6.370;2023-04-01T16:42:40;10.70;;;5.70;;
51943;SDS011;37969;53.132;6.370;2023-04-01T16:45:16;8.23;;;5.32;;
51943;SDS011;37969;53.132;6.370;2023-04-01T16:47:46;8.95;;;5.50;;
51943;SDS011;37969;53.132;6.370;2023-04-01T16:50:17;10.05;;;5.82;;
51943;SDS011;37969;53.132;6.370;2023-04-01T16:55:33;11.85;;;5.95;;
51943;SDS011;37969;53.132;6.370;2023-04-01T16:58:00;15.00;;;6.50;;
51943;SDS011;37969;53.132;6.370;2023-04-01T17:00:28;11.15;;;6.07;;
51943;SDS011;37969;53.132;6.370;2023-04-01T17:02:58;12.38;;;6.05;;
51943;SDS011;37969;53.132;6.370;2023-04-01T17:05:40;10.63;;;6.45;;
51943;SDS011;37969;53.132;6.370;2023-04-01T17:13:15;11.20;;;6.00;;
51943;SDS011;37969;53.132;6.370;2023-04-01T17:18:15;16.35;;;6.00;;
51943;SDS011;37969;53.132;6.370;2023-04-01T17:20:55;11.93;;;7.47;;
51943;SDS011;37969;53.132;6.370;2023-04-01T17:28:33;10.95;;;6.32;;
51943;SDS011;37969;53.132;6.370;2023-04-01T17:31:10;14.93;;;7.60;;
51943;SDS011;37969;53.132;6.370;2023-04-01T17:33:44;10.43;;;6.40;;
51943;SDS011;37969;53.132;6.370;2023-04-01T17:36:16;11.80;;;6.25;;
51943;SDS011;37969;53.132;6.370;2023-04-01T17:38:49;8.65;;;5.85;;
51943;SDS011;37969;53.132;6.370;2023-04-01T17:44:11;11.38;;;6.30;;
51943;SDS011;37969;53.132;6.370;2023-04-01T17:49:17;10.25;;;5.75;;
51943;SDS011;37969;53.132;6.370;2023-04-01T17:51:51;10.38;;;6.30;;
51943;SDS011;37969;53.132;6.370;2023-04-01T17:54:26;10.82;;;6.10;;
51943;SDS011;37969;53.132;6.370;2023-04-01T17:59:33;13.90;;;6.72;;
51943;SDS011;37969;53.132;6.370;2023-04-01T18:02:15;12.43;;;6.20;;
51943;SDS011;37969;53.132;6.370;2023-04-01T18:04:51;12.10;;;6.85;;
51943;SDS011;37969;53.132;6.370;2023-04-01T18:09:51;8.30;;;5.63;;
51943;SDS011;37969;53.132;6.370;2023-04-01T18:17:25;8.75;;;5.95;;
51943;SDS011;37969;53.132;6.370;2023-04-01T18:24:56;10.95;;;6.28;;
51943;SDS011;37969;53.132;6.370;2023-04-01T18:27:28;11.50;;;7.35;;
51943;SDS011;37969;53.132;6.370;2023-04-01T18:30:07;16.17;;;7.18;;
51943;SDS011;37969;53.132;6.370;2023-04-01T18:32:43;11.50;;;7.72;;
51943;SDS011;37969;53.132;6.370;2023-04-01T18:35:19;17.23;;;8.65;;
51943;SDS011;37969;53.132;6.370;2023-04-01T18:37:51;14.50;;;7.53;;
51943;SDS011;37969;53.132;6.370;2023-04-01T18:40:28;10.75;;;6.82;;
51943;SDS011;37969;53.132;6.370;2023-04-01T18:43:01;15.73;;;6.97;;
51943;SDS011;37969;53.132;6.370;2023-04-01T18:50:43;13.48;;;6.90;;
51943;SDS011;37969;53.132;6.370;2023-04-01T18:55:40;14.55;;;7.50;;
51943;SDS011;37969;53.132;6.370;2023-04-01T19:00:41;14.20;;;7.68;;
51943;SDS011;37969;53.132;6.370;2023-04-01T19:03:16;14.45;;;7.50;;
51943;SDS011;37969;53.132;6.370;2023-04-01T19:05:45;14.00;;;7.97;;
51943;SDS011;37969;53.132;6.370;2023-04-01T19:08:22;17.73;;;8.32;;
51943;SDS011;37969;53.132;6.370;2023-04-01T19:18:35;18.58;;;7.82;;
51943;SDS011;37969;53.132;6.370;2023-04-01T19:21:11;14.85;;;8.38;;
51943;SDS011;37969;53.132;6.370;2023-04-01T19:26:11;16.20;;;7.82;;
51943;SDS011;37969;53.132;6.370;2023-04-01T19:28:44;11.48;;;7.85;;
51943;SDS011;37969;53.132;6.370;2023-04-01T19:31:19;16.73;;;7.85;;
51943;SDS011;37969;53.132;6.370;2023-04-01T19:36:20;14.85;;;7.88;;
51943;SDS011;37969;53.132;6.370;2023-04-01T19:38:52;16.02;;;7.93;;
51943;SDS011;37969;53.132;6.370;2023-04-01T19:41:29;14.82;;;8.07;;
51943;SDS011;37969;53.132;6.370;2023-04-01T19:49:03;18.30;;;8.38;;
51943;SDS011;37969;53.132;6.370;2023-04-01T19:51:37;18.42;;;8.48;;
51943;SDS011;37969;53.132;6.370;2023-04-01T19:54:13;17.25;;;8.18;;
51943;SDS011;37969;53.132;6.370;2023-04-01T19:56:47;12.82;;;7.97;;
51943;SDS011;37969;53.132;6.370;2023-04-01T19:59:18;14.20;;;8.20;;
51943;SDS011;37969;53.132;6.370;2023-04-01T20:02:16;15.80;;;8.02;;
51943;SDS011;37969;53.132;6.370;2023-04-01T20:04:48;12.85;;;7.63;;
51943;SDS011;37969;53.132;6.370;2023-04-01T20:07:23;16.38;;;7.70;;